createdAt,value
2022-08-03T00:02:17.114Z,18.38
2022-08-03T00:04:44.014Z,18.32
2022-08-03T00:07:10.582Z,18.23
2022-08-03T00:09:37.244Z,18.15
2022-08-03T00:12:04.208Z,18.14
2022-08-03T00:14:30.810Z,18.11
2022-08-03T00:16:58.972Z,18.09
2022-08-03T00:19:25.578Z,18.13
2022-08-03T00:21:52.133Z,18.19
2022-08-03T00:24:18.755Z,18.13
2022-08-03T00:26:45.559Z,18.11
2022-08-03T00:29:12.873Z,18.08
2022-08-03T00:31:40.012Z,18.09
2022-08-03T00:34:29.847Z,18.08
2022-08-03T00:37:06.836Z,18.12
2022-08-03T00:39:33.417Z,18.08
2022-08-03T00:42:02.339Z,17.95
2022-08-03T00:44:28.980Z,17.95
2022-08-03T00:46:55.557Z,17.99
2022-08-03T00:49:23.644Z,17.96
2022-08-03T00:51:50.790Z,17.96
2022-08-03T00:54:17.866Z,17.97
2022-08-03T00:56:59.435Z,17.98
2022-08-03T00:59:27.430Z,17.95
2022-08-03T01:01:54.090Z,17.89
2022-08-03T01:04:20.645Z,17.90
2022-08-03T01:06:52.559Z,17.80
2022-08-03T01:09:26.949Z,17.59
2022-08-03T01:12:01.841Z,17.54
2022-08-03T01:14:36.307Z,17.43
2022-08-03T01:17:14.873Z,17.33
2022-08-03T01:19:46.556Z,17.15
2022-08-03T01:22:23.260Z,17.26
2022-08-03T01:25:00.413Z,17.25
2022-08-03T01:27:37.191Z,17.17
2022-08-03T01:30:08.316Z,17.17
2022-08-03T01:33:02.687Z,17.16
2022-08-03T01:35:33.160Z,17.07
2022-08-03T01:38:10.014Z,16.96
2022-08-03T01:40:39.445Z,16.82
2022-08-03T01:43:07.931Z,16.76
2022-08-03T01:45:37.294Z,16.80
2022-08-03T01:48:06.687Z,16.73
2022-08-03T01:50:34.289Z,16.78
2022-08-03T01:53:02.386Z,16.77
2022-08-03T01:55:31.311Z,16.72
2022-08-03T01:58:05.720Z,16.61
2022-08-03T02:00:35.383Z,16.59
2022-08-03T02:03:06.071Z,16.63
2022-08-03T02:05:33.940Z,16.52
2022-08-03T02:08:01.849Z,16.64
2022-08-03T02:10:34.698Z,16.70
2022-08-03T02:13:05.118Z,16.71
2022-08-03T02:15:33.684Z,16.75
2022-08-03T02:18:04.972Z,16.82
2022-08-03T02:20:33.588Z,16.86
2022-08-03T02:23:00.226Z,16.86
2022-08-03T02:25:27.359Z,16.84
2022-08-03T02:27:57.853Z,16.78
2022-08-03T02:30:30.876Z,16.68
2022-08-03T02:32:59.158Z,16.70
2022-08-03T02:35:30.527Z,16.67
2022-08-03T02:38:01.077Z,16.61
2022-08-03T02:40:29.262Z,16.46
2022-08-03T02:42:59.404Z,16.50
2022-08-03T02:45:28.762Z,16.56
2022-08-03T02:47:58.425Z,16.53
2022-08-03T02:50:28.549Z,16.43
2022-08-03T02:52:57.206Z,16.44
2022-08-03T02:55:26.095Z,16.48
2022-08-03T02:57:54.210Z,16.47
2022-08-03T03:00:28.090Z,16.44
2022-08-03T03:02:57.466Z,16.35
2022-08-03T03:05:52.135Z,16.33
2022-08-03T03:08:18.013Z,16.33
2022-08-03T03:10:46.457Z,16.34
2022-08-03T03:13:15.984Z,16.39
2022-08-03T03:15:45.065Z,16.34
2022-08-03T03:18:12.606Z,16.24
2022-08-03T03:20:39.681Z,16.14
2022-08-03T03:23:26.706Z,16.06
2022-08-03T03:25:54.331Z,15.99
2022-08-03T03:28:21.051Z,15.96
2022-08-03T03:30:53.111Z,15.90
2022-08-03T03:33:20.065Z,16.00
2022-08-03T03:35:47.308Z,16.00
2022-08-03T03:38:14.076Z,15.94
2022-08-03T03:40:42.427Z,15.97
2022-08-03T03:43:10.235Z,16.05
2022-08-03T03:45:37.698Z,15.99
2022-08-03T03:48:05.443Z,15.95
2022-08-03T03:50:33.832Z,15.92
2022-08-03T03:53:01.292Z,15.89
2022-08-03T03:55:27.834Z,15.77
2022-08-03T03:57:56.363Z,15.84
2022-08-03T04:00:23.403Z,15.83
2022-08-03T04:02:49.959Z,15.83
2022-08-03T04:05:16.539Z,15.82
2022-08-03T04:07:50.786Z,15.68
2022-08-03T04:10:22.350Z,15.56
2022-08-03T04:12:50.912Z,15.59
2022-08-03T04:15:22.462Z,15.58
2022-08-03T04:17:51.063Z,15.56
2022-08-03T04:20:21.203Z,15.51
2022-08-03T04:22:49.632Z,15.59
2022-08-03T04:25:18.491Z,15.58
2022-08-03T04:28:07.643Z,15.63
2022-08-03T04:30:38.639Z,15.65
2022-08-03T04:33:06.348Z,15.77
2022-08-03T04:35:58.440Z,15.69
2022-08-03T04:38:23.499Z,15.64
2022-08-03T04:40:50.700Z,15.62
2022-08-03T04:43:18.850Z,15.62
2022-08-03T04:45:47.944Z,15.59
2022-08-03T04:48:15.391Z,15.64
2022-08-03T04:50:42.305Z,15.66
2022-08-03T04:53:09.896Z,15.79
2022-08-03T04:55:36.522Z,16.01
2022-08-03T04:58:04.513Z,15.99
2022-08-03T05:00:31.190Z,15.79
2022-08-03T05:02:59.165Z,15.91
2022-08-03T05:05:25.798Z,15.85
2022-08-03T05:08:05.016Z,15.96
2022-08-03T05:10:37.716Z,16.02
2022-08-03T05:13:04.281Z,16.12
2022-08-03T05:15:30.854Z,16.12
2022-08-03T05:17:58.727Z,16.27
2022-08-03T05:20:26.001Z,16.45
2022-08-03T05:22:52.527Z,16.62
2022-08-03T05:25:19.941Z,16.96
2022-08-03T05:27:48.847Z,17.29
2022-08-03T05:30:32.315Z,17.36
2022-08-03T05:33:02.839Z,18.14
2022-08-03T05:35:57.956Z,18.14
2022-08-03T05:38:23.876Z,18.23
2022-08-03T05:40:57.488Z,18.45
2022-08-03T05:43:42.835Z,18.82
2022-08-03T05:46:12.132Z,19.12
2022-08-03T05:48:41.542Z,19.45
2022-08-03T05:51:08.095Z,19.60
2022-08-03T05:53:34.694Z,19.81
2022-08-03T05:56:13.298Z,19.84
2022-08-03T05:58:41.656Z,19.67
2022-08-03T06:01:08.271Z,19.77
2022-08-03T06:03:34.843Z,20.08
2022-08-03T06:06:02.774Z,20.38
2022-08-03T06:08:29.306Z,20.81
2022-08-03T06:10:55.841Z,20.99
2022-08-03T06:13:22.380Z,20.91
2022-08-03T06:15:48.932Z,21.25
2022-08-03T06:18:15.447Z,21.17
2022-08-03T06:20:42.000Z,21.62
2022-08-03T06:23:16.146Z,21.94
2022-08-03T06:25:44.515Z,22.43
2022-08-03T06:28:19.024Z,22.44
2022-08-03T06:30:50.303Z,23.02
2022-08-03T06:33:17.039Z,23.21
2022-08-03T06:35:44.702Z,23.76
2022-08-03T06:38:13.204Z,24.09
2022-08-03T06:40:39.747Z,24.30
2022-08-03T06:43:10.726Z,24.02
2022-08-03T06:45:39.499Z,24.84
2022-08-03T06:48:07.904Z,25.08
2022-08-03T06:50:36.192Z,25.13
2022-08-03T06:53:03.408Z,25.35
2022-08-03T06:55:32.300Z,25.75
2022-08-03T06:57:59.845Z,25.55
2022-08-03T07:00:29.935Z,25.83
2022-08-03T07:02:58.470Z,26.75
2022-08-03T07:05:25.397Z,27.24
2022-08-03T07:07:55.127Z,26.53
2022-08-03T07:10:21.705Z,26.39
2022-08-03T07:12:55.883Z,26.59
2022-08-03T07:15:53.864Z,26.63
2022-08-03T07:18:10.977Z,26.79
2022-08-03T07:20:37.649Z,26.42
2022-08-03T07:23:04.241Z,26.34
2022-08-03T07:25:30.819Z,26.63
2022-08-03T07:27:58.682Z,26.73
2022-08-03T07:30:25.237Z,26.67
2022-08-03T07:32:51.751Z,26.55
2022-08-03T07:35:24.934Z,26.80
2022-08-03T07:37:54.213Z,26.80
2022-08-03T07:40:22.312Z,26.92
2022-08-03T07:42:53.315Z,26.71
2022-08-03T07:45:21.461Z,26.99
2022-08-03T07:47:53.202Z,27.03
2022-08-03T07:50:20.877Z,27.12
2022-08-03T07:52:47.538Z,27.17
2022-08-03T07:55:14.314Z,26.96
2022-08-03T07:57:40.951Z,26.87
2022-08-03T08:00:13.137Z,26.83
2022-08-03T08:02:41.164Z,26.81
2022-08-03T08:05:08.826Z,26.96
2022-08-03T08:07:35.405Z,27.04
2022-08-03T08:10:01.962Z,27.17
2022-08-03T08:12:28.630Z,27.69
2022-08-03T08:14:55.146Z,27.48
2022-08-03T08:17:21.722Z,27.83
2022-08-03T08:19:51.647Z,27.91
2022-08-03T08:22:29.766Z,28.01
2022-08-03T08:24:57.555Z,27.46
2022-08-03T08:27:24.107Z,27.92
2022-08-03T08:29:54.195Z,27.79
2022-08-03T08:32:23.373Z,27.50
2022-08-03T08:34:51.266Z,27.66
2022-08-03T08:37:17.891Z,27.73
2022-08-03T08:39:44.420Z,27.86
2022-08-03T08:42:11.020Z,28.23
2022-08-03T08:44:37.550Z,28.27
2022-08-03T08:47:04.290Z,28.61
2022-08-03T08:49:32.569Z,28.69
2022-08-03T08:52:01.614Z,28.44
2022-08-03T08:54:31.341Z,28.36
2022-08-03T08:57:02.356Z,28.48
2022-08-03T08:59:48.760Z,28.61
2022-08-03T09:02:16.567Z,28.30
2022-08-03T09:04:43.923Z,28.56
2022-08-03T09:07:20.027Z,28.68
2022-08-03T09:10:10.598Z,28.62
2022-08-03T09:12:41.899Z,28.54
2022-08-03T09:15:20.343Z,28.48
2022-08-03T09:17:50.820Z,28.56
2022-08-03T09:20:18.501Z,28.85
2022-08-03T09:23:19.074Z,29.02
2022-08-03T09:25:59.900Z,28.98
2022-08-03T09:29:00.860Z,28.97
2022-08-03T09:31:20.713Z,29.26
2022-08-03T09:33:48.268Z,29.01
2022-08-03T09:36:39.771Z,28.77
2022-08-03T09:39:08.827Z,28.97
2022-08-03T09:41:35.441Z,29.31
2022-08-03T09:44:01.992Z,29.33
2022-08-03T09:46:28.578Z,29.40
2022-08-03T09:49:11.911Z,29.41
2022-08-03T09:52:32.647Z,29.37
2022-08-03T09:54:28.218Z,29.33
2022-08-03T09:56:55.379Z,29.38
2022-08-03T09:59:26.160Z,29.43
2022-08-03T10:01:53.184Z,29.42
2022-08-03T10:04:20.269Z,29.48
2022-08-03T10:07:02.266Z,29.34
2022-08-03T10:09:30.194Z,29.57
2022-08-03T10:11:57.543Z,29.61
2022-08-03T10:14:24.494Z,29.67
2022-08-03T10:16:51.087Z,29.61
2022-08-03T10:19:17.687Z,29.71
2022-08-03T10:21:49.619Z,29.52
2022-08-03T10:24:20.091Z,29.62
2022-08-03T10:26:50.290Z,29.57
2022-08-03T10:29:21.896Z,29.57
2022-08-03T10:31:57.328Z,29.44
2022-08-03T10:34:26.961Z,29.38
2022-08-03T10:36:58.269Z,29.00
2022-08-03T10:39:27.443Z,29.25
2022-08-03T10:41:56.612Z,29.60
2022-08-03T10:44:26.047Z,29.62
2022-08-03T10:46:53.369Z,29.68
2022-08-03T10:49:33.711Z,29.69
2022-08-03T10:52:09.678Z,29.76
2022-08-03T10:54:41.837Z,29.81
2022-08-03T10:57:42.720Z,29.85
2022-08-03T11:00:10.493Z,29.77
2022-08-03T11:03:06.541Z,29.88
2022-08-03T11:05:35.387Z,29.79
2022-08-03T11:08:23.139Z,29.81
2022-08-03T11:10:51.334Z,29.91
2022-08-03T11:13:21.256Z,29.92
2022-08-03T11:15:49.971Z,30.04
2022-08-03T11:18:17.120Z,30.08
2022-08-03T11:20:45.981Z,30.08
2022-08-03T11:23:13.285Z,30.15
2022-08-03T11:26:15.051Z,30.06
2022-08-03T11:28:45.058Z,30.16
2022-08-03T11:31:51.880Z,30.14
2022-08-03T11:34:18.759Z,30.23
2022-08-03T11:37:20.891Z,30.19
2022-08-03T11:39:50.429Z,30.23
2022-08-03T11:42:39.302Z,30.28
2022-08-03T11:45:09.127Z,30.29
2022-08-03T11:47:50.229Z,30.29
2022-08-03T11:50:18.531Z,30.41
2022-08-03T11:52:45.166Z,30.50
2022-08-03T11:55:14.431Z,30.15
2022-08-03T11:59:01.191Z,30.09
2022-08-03T12:00:30.978Z,30.19
2022-08-03T12:02:59.671Z,30.26
2022-08-03T12:05:37.264Z,30.38
2022-08-03T12:08:06.885Z,30.44
2022-08-03T12:10:34.167Z,30.60
2022-08-03T12:13:02.486Z,30.66
2022-08-03T12:15:32.559Z,30.93
2022-08-03T12:17:59.801Z,30.92
2022-08-03T12:20:35.294Z,31.04
2022-08-03T12:23:03.631Z,30.97
2022-08-03T12:25:39.455Z,30.87
2022-08-03T12:28:36.990Z,30.85
2022-08-03T12:31:02.585Z,31.02
2022-08-03T12:33:29.199Z,31.04
2022-08-03T12:36:05.377Z,30.98
2022-08-03T12:38:32.390Z,30.96
2022-08-03T12:41:06.535Z,31.04
2022-08-03T12:43:36.565Z,31.09
2022-08-03T12:46:14.828Z,31.18
2022-08-03T12:49:05.436Z,31.23
2022-08-03T12:51:33.812Z,31.26
2022-08-03T12:54:00.803Z,31.36
2022-08-03T12:56:27.418Z,31.25
2022-08-03T12:58:54.039Z,31.25
2022-08-03T13:01:22.053Z,31.35
2022-08-03T13:03:52.697Z,31.36
2022-08-03T13:06:21.594Z,31.36
2022-08-03T13:08:48.288Z,31.37
2022-08-03T13:11:19.347Z,31.40
2022-08-03T13:13:45.958Z,31.39
2022-08-03T13:16:17.194Z,31.40
2022-08-03T13:18:47.140Z,31.29
2022-08-03T13:21:15.239Z,31.20
2022-08-03T13:23:42.349Z,31.09
2022-08-03T13:26:08.982Z,31.17
2022-08-03T13:28:35.533Z,31.33
2022-08-03T13:31:04.028Z,31.54
2022-08-03T13:33:33.750Z,31.66
2022-08-03T13:36:01.614Z,31.69
2022-08-03T13:38:28.162Z,31.57
2022-08-03T13:40:55.133Z,31.58
2022-08-03T13:43:22.516Z,31.64
2022-08-03T13:45:53.576Z,31.61
2022-08-03T13:48:36.236Z,31.67
2022-08-03T13:51:22.274Z,31.69
2022-08-03T13:53:49.950Z,31.73
2022-08-03T13:56:16.467Z,31.77
2022-08-03T13:58:43.081Z,31.80
2022-08-03T14:01:09.676Z,31.94
2022-08-03T14:03:36.211Z,31.98
2022-08-03T14:06:02.760Z,31.97
2022-08-03T14:08:30.754Z,31.89
2022-08-03T14:10:58.167Z,31.89
2022-08-03T14:13:24.703Z,31.92
2022-08-03T14:15:51.497Z,32.07
2022-08-03T14:18:27.609Z,32.11
2022-08-03T14:20:59.638Z,32.11
2022-08-03T14:23:29.992Z,32.14
2022-08-03T14:25:56.536Z,32.31
2022-08-03T14:28:23.920Z,32.27
2022-08-03T14:30:52.098Z,32.18
2022-08-03T14:33:19.002Z,32.21
2022-08-03T14:35:45.596Z,32.04
2022-08-03T14:38:12.164Z,32.15
2022-08-03T14:40:40.110Z,32.14
2022-08-03T14:43:06.731Z,32.12
2022-08-03T14:45:33.279Z,32.24
2022-08-03T14:50:31.789Z,32.45
2022-08-03T14:50:51.024Z,32.46
2022-08-03T14:53:18.493Z,32.54
2022-08-03T14:55:49.631Z,32.47
2022-08-03T14:58:19.578Z,32.40
2022-08-03T15:00:49.327Z,32.39
2022-08-03T15:03:16.975Z,32.36
2022-08-03T15:05:43.916Z,32.32
2022-08-03T15:08:10.427Z,32.33
2022-08-03T15:10:40.373Z,32.29
2022-08-03T15:13:12.884Z,32.23
2022-08-03T15:15:39.625Z,32.36
2022-08-03T15:18:06.204Z,32.39
2022-08-03T15:20:43.892Z,32.40
2022-08-03T15:23:11.335Z,32.15
2022-08-03T15:26:29.208Z,32.13
2022-08-03T15:28:25.748Z,32.11
2022-08-03T15:30:53.696Z,32.18
2022-08-03T15:33:20.342Z,32.23
2022-08-03T15:35:47.019Z,32.22
2022-08-03T15:38:13.634Z,32.28
2022-08-03T15:40:40.244Z,32.38
2022-08-03T15:43:07.084Z,32.40
2022-08-03T15:45:36.093Z,32.31
2022-08-03T15:48:03.883Z,32.29
2022-08-03T15:50:30.554Z,32.22
2022-08-03T15:52:57.131Z,32.23
2022-08-03T15:55:23.803Z,32.17
2022-08-03T15:59:04.099Z,32.15
2022-08-03T16:00:39.046Z,32.17
2022-08-03T16:03:05.834Z,32.24
2022-08-03T16:05:32.452Z,32.21
2022-08-03T16:08:03.914Z,32.15
2022-08-03T16:10:31.930Z,32.10
2022-08-03T16:12:58.818Z,32.07
2022-08-03T16:15:25.697Z,32.13
2022-08-03T16:17:53.571Z,32.10
2022-08-03T16:20:29.710Z,32.06
2022-08-03T16:23:01.496Z,31.93
2022-08-03T16:25:34.990Z,31.79
2022-08-03T16:28:08.122Z,31.86
2022-08-03T16:30:40.268Z,31.79
2022-08-03T16:33:08.331Z,31.81
2022-08-03T16:35:35.071Z,31.71
2022-08-03T16:38:05.373Z,31.70
2022-08-03T16:40:35.006Z,31.70
2022-08-03T16:43:01.624Z,31.91
2022-08-03T16:45:28.195Z,32.01
2022-08-03T16:48:05.602Z,31.84
2022-08-03T16:50:34.781Z,31.78
2022-08-03T16:53:01.366Z,31.75
2022-08-03T16:55:51.666Z,31.77
2022-08-03T16:58:15.937Z,31.80
2022-08-03T17:00:43.932Z,31.61
2022-08-03T17:03:20.579Z,31.72
2022-08-03T17:05:52.415Z,31.68
2022-08-03T17:08:26.507Z,31.58
2022-08-03T17:10:54.642Z,31.62
2022-08-03T17:13:21.743Z,31.58
2022-08-03T17:15:57.949Z,31.64
2022-08-03T17:18:26.639Z,31.51
2022-08-03T17:20:56.220Z,31.49
2022-08-03T17:23:36.543Z,31.36
2022-08-03T17:26:07.480Z,31.12
2022-08-03T17:28:51.991Z,30.97
2022-08-03T17:31:31.771Z,30.92
2022-08-03T17:34:00.695Z,30.84
2022-08-03T17:36:54.006Z,30.71
2022-08-03T17:39:17.246Z,30.53
2022-08-03T17:41:49.866Z,30.51
2022-08-03T17:44:31.179Z,30.37
2022-08-03T17:47:04.766Z,29.97
2022-08-03T17:49:33.241Z,29.77
2022-08-03T17:52:17.377Z,29.57
2022-08-03T17:55:55.731Z,29.43
2022-08-03T17:58:03.084Z,29.47
2022-08-03T18:00:29.460Z,29.20
2022-08-03T18:03:08.221Z,29.06
2022-08-03T18:06:10.367Z,28.92
2022-08-03T18:08:27.276Z,28.80
2022-08-03T18:11:03.348Z,28.65
2022-08-03T18:13:40.474Z,28.44
2022-08-03T18:16:11.364Z,28.42
2022-08-03T18:18:43.237Z,28.17
2022-08-03T18:21:16.905Z,27.94
2022-08-03T18:23:50.358Z,27.52
2022-08-03T18:26:18.332Z,27.03
2022-08-03T18:28:46.314Z,26.69
2022-08-03T18:32:00.015Z,26.54
2022-08-03T18:34:19.021Z,26.20
2022-08-03T18:36:50.231Z,25.96
2022-08-03T18:39:18.687Z,25.79
2022-08-03T18:41:46.777Z,25.51
2022-08-03T18:44:46.511Z,25.42
2022-08-03T18:47:28.092Z,25.18
2022-08-03T18:50:19.002Z,25.04
2022-08-03T18:52:52.924Z,24.98
2022-08-03T18:56:01.507Z,24.84
2022-08-03T18:58:34.896Z,24.67
2022-08-03T19:01:56.422Z,24.56
2022-08-03T19:04:07.368Z,24.38
2022-08-03T19:06:39.337Z,24.19
2022-08-03T19:09:07.295Z,24.11
2022-08-03T19:12:12.335Z,23.93
2022-08-03T19:14:35.235Z,23.82
2022-08-03T19:17:09.233Z,23.68
2022-08-03T19:19:43.423Z,23.53
2022-08-03T19:22:12.766Z,23.50
2022-08-03T19:24:45.693Z,23.41
2022-08-03T19:27:14.164Z,23.30
2022-08-03T19:29:58.161Z,23.26
2022-08-03T19:32:27.733Z,23.16
2022-08-03T19:34:54.958Z,22.99
2022-08-03T19:37:22.528Z,22.96
2022-08-03T19:39:56.661Z,22.86
2022-08-03T19:42:30.156Z,22.81
2022-08-03T19:45:11.016Z,22.79
2022-08-03T19:47:45.541Z,22.75
2022-08-03T19:50:14.313Z,22.67
2022-08-03T19:52:44.034Z,22.45
2022-08-03T19:55:12.209Z,22.37
2022-08-03T19:57:43.670Z,22.27
2022-08-03T20:00:13.901Z,22.16
2022-08-03T20:02:41.331Z,22.18
2022-08-03T20:05:14.778Z,22.19
2022-08-03T20:07:47.450Z,22.17
2022-08-03T20:10:15.381Z,22.16
2022-08-03T20:12:43.943Z,22.07
2022-08-03T20:15:10.867Z,21.91
2022-08-03T20:17:56.617Z,21.83
2022-08-03T20:20:26.964Z,21.73
2022-08-03T20:25:57.024Z,21.70
2022-08-03T20:28:32.015Z,21.62
2022-08-03T20:30:59.826Z,21.59
2022-08-03T20:33:27.841Z,21.58
2022-08-03T20:36:13.518Z,21.54
2022-08-03T20:38:43.700Z,21.59
2022-08-03T20:41:13.872Z,21.55
2022-08-03T20:43:42.024Z,21.45
2022-08-03T20:46:29.544Z,21.47
2022-08-03T20:48:57.309Z,21.46
2022-08-03T20:51:52.395Z,21.42
2022-08-03T20:54:22.713Z,21.41
2022-08-03T20:56:57.267Z,21.38
2022-08-03T20:59:26.726Z,21.35
2022-08-03T21:01:53.332Z,21.29
2022-08-03T21:04:21.924Z,21.32
2022-08-03T21:06:54.213Z,21.26
2022-08-03T21:09:25.196Z,21.28
2022-08-03T21:12:07.890Z,21.24
2022-08-03T21:13:08.292Z,21.68
2022-08-03T21:14:43.109Z,21.23
2022-08-03T21:17:19.440Z,21.26
2022-08-03T21:19:57.330Z,21.26
2022-08-03T21:22:25.790Z,21.27
2022-08-03T21:24:55.874Z,21.24
2022-08-03T21:27:23.833Z,21.21
2022-08-03T21:29:53.002Z,21.23
2022-08-03T21:32:32.523Z,21.20
2022-08-03T21:35:00.408Z,21.13
2022-08-03T21:37:28.347Z,21.12
2022-08-03T21:39:56.478Z,21.08
2022-08-03T21:42:23.940Z,21.06
2022-08-03T21:44:52.459Z,21.08
2022-08-03T21:47:21.033Z,20.99
2022-08-03T21:50:08.790Z,20.98
2022-08-03T21:52:41.172Z,20.92
2022-08-03T21:55:08.701Z,20.96
2022-08-03T21:57:51.575Z,20.96
2022-08-03T22:00:22.285Z,20.89
2022-08-03T22:02:55.445Z,20.85
2022-08-03T22:05:42.412Z,20.78
2022-08-03T22:08:11.078Z,20.67
2022-08-03T22:10:38.071Z,20.67
2022-08-03T22:13:04.786Z,20.65
2022-08-03T22:15:33.082Z,20.65
2022-08-03T22:17:59.907Z,20.64
2022-08-03T22:20:26.437Z,20.60
2022-08-03T22:22:55.729Z,20.57
2022-08-03T22:25:27.677Z,20.49
2022-08-03T22:27:54.908Z,20.43
2022-08-03T22:30:21.661Z,20.36
2022-08-03T22:32:53.103Z,20.33
2022-08-03T22:35:21.553Z,20.38
2022-08-03T22:37:49.344Z,20.27
2022-08-03T22:40:16.749Z,20.26
2022-08-03T22:42:45.024Z,20.20
2022-08-03T22:45:12.315Z,20.17
2022-08-03T22:48:01.015Z,20.06
2022-08-03T22:50:32.266Z,19.98
2022-08-03T22:53:01.072Z,20.00
2022-08-03T22:55:27.793Z,20.00
2022-08-03T22:57:56.069Z,20.05
2022-08-03T23:00:23.447Z,20.04
2022-08-03T23:02:51.969Z,20.06
2022-08-03T23:06:00.575Z,20.09
2022-08-03T23:08:12.153Z,20.07
2022-08-03T23:10:42.595Z,20.04
2022-08-03T23:13:14.447Z,19.99
2022-08-03T23:15:41.360Z,19.97
2022-08-03T23:18:08.841Z,19.90
2022-08-03T23:20:37.065Z,19.90
2022-08-03T23:23:03.842Z,19.90
2022-08-03T23:25:31.737Z,19.86
2022-08-03T23:28:05.186Z,19.83
2022-08-03T23:30:34.328Z,19.77
2022-08-03T23:33:02.160Z,19.75
2022-08-03T23:35:29.052Z,19.73
2022-08-03T23:38:22.914Z,19.69
2022-08-03T23:40:51.548Z,19.65
2022-08-03T23:43:51.098Z,19.60
2022-08-03T23:46:08.196Z,19.60
2022-08-03T23:48:34.706Z,19.56
2022-08-03T23:51:08.775Z,19.53
2022-08-03T23:53:44.029Z,19.51
2022-08-03T23:56:19.214Z,19.30
2022-08-03T23:59:02.643Z,19.21
